createdAt,value
2023-02-08T00:00:36.407Z,54.11
2023-02-08T00:03:02.904Z,54.02
2023-02-08T00:05:29.240Z,54.13
2023-02-08T00:07:55.556Z,54.03
2023-02-08T00:10:21.933Z,54.08
2023-02-08T00:12:48.357Z,53.91
2023-02-08T00:15:14.724Z,54.01
2023-02-08T00:17:41.153Z,53.95
2023-02-08T00:20:07.664Z,54.10
2023-02-08T00:22:34.064Z,53.96
2023-02-08T00:25:00.435Z,53.91
2023-02-08T00:27:27.083Z,53.70
2023-02-08T00:29:53.440Z,53.73
2023-02-08T00:32:19.948Z,53.96
2023-02-08T00:34:46.314Z,53.92
2023-02-08T00:37:12.660Z,54.08
2023-02-08T00:39:39.106Z,53.98
2023-02-08T00:42:05.511Z,53.94
2023-02-08T00:44:31.908Z,53.89
2023-02-08T00:46:58.252Z,53.89
2023-02-08T00:49:24.874Z,53.79
2023-02-08T00:51:51.212Z,53.82
2023-02-08T00:54:17.853Z,53.62
2023-02-08T00:56:44.223Z,53.84
2023-02-08T00:59:10.639Z,53.71
2023-02-08T01:01:36.978Z,53.83
2023-02-08T01:04:03.375Z,53.55
2023-02-08T01:06:29.813Z,53.69
2023-02-08T01:08:56.209Z,53.82
2023-02-08T01:11:22.720Z,53.57
2023-02-08T01:13:49.220Z,53.76
2023-02-08T01:16:15.706Z,53.49
2023-02-08T01:18:42.127Z,53.76
2023-02-08T01:21:08.583Z,53.71
2023-02-08T01:23:35.011Z,53.66
2023-02-08T01:26:01.567Z,53.80
2023-02-08T01:28:27.978Z,53.60
2023-02-08T01:30:54.432Z,53.62
2023-02-08T01:33:20.955Z,53.77
2023-02-08T01:35:47.232Z,53.72
2023-02-08T01:38:13.677Z,53.46
2023-02-08T01:40:40.662Z,53.58
2023-02-08T01:43:07.306Z,53.62
2023-02-08T01:45:33.696Z,53.57
2023-02-08T01:48:00.128Z,53.52
2023-02-08T01:50:26.509Z,53.57
2023-02-08T01:52:53.119Z,53.62
2023-02-08T01:55:19.505Z,53.86
2023-02-08T01:57:45.917Z,53.46
2023-02-08T02:00:12.514Z,53.49
2023-02-08T02:02:39.001Z,53.43
2023-02-08T02:05:06.212Z,53.36
2023-02-08T02:07:33.442Z,53.44
2023-02-08T02:09:59.980Z,53.46
2023-02-08T02:12:29.986Z,53.38
2023-02-08T02:14:56.485Z,53.54
2023-02-08T02:17:23.505Z,53.52
2023-02-08T02:19:50.037Z,53.45
2023-02-08T02:22:16.534Z,53.42
2023-02-08T02:24:45.235Z,53.31
2023-02-08T02:27:17.793Z,53.34
2023-02-08T02:29:44.465Z,53.37
2023-02-08T02:32:11.092Z,53.45
2023-02-08T02:34:37.546Z,53.50
2023-02-08T02:37:03.972Z,53.21
2023-02-08T02:39:30.343Z,53.35
2023-02-08T02:41:56.712Z,53.31
2023-02-08T02:44:23.748Z,53.34
2023-02-08T02:46:50.259Z,53.25
2023-02-08T02:49:17.619Z,53.38
2023-02-08T02:51:44.002Z,53.45
2023-02-08T02:54:11.318Z,53.30
2023-02-08T02:56:37.885Z,53.37
2023-02-08T02:59:04.326Z,53.39
2023-02-08T03:01:30.867Z,53.30
2023-02-08T03:03:57.295Z,53.17
2023-02-08T03:06:23.691Z,53.38
2023-02-08T03:08:50.285Z,53.22
2023-02-08T03:11:16.706Z,53.22
2023-02-08T03:13:43.100Z,53.23
2023-02-08T03:16:10.889Z,53.30
2023-02-08T03:18:37.220Z,53.23
2023-02-08T03:21:03.860Z,53.28
2023-02-08T03:23:30.445Z,53.12
2023-02-08T03:25:57.099Z,53.10
2023-02-08T03:28:23.531Z,53.18
2023-02-08T03:30:50.251Z,53.09
2023-02-08T03:33:17.127Z,53.01
2023-02-08T03:35:43.473Z,53.16
2023-02-08T03:38:10.027Z,53.14
2023-02-08T03:40:36.468Z,53.08
2023-02-08T03:43:03.044Z,53.17
2023-02-08T03:45:29.342Z,53.18
2023-02-08T03:47:56.144Z,52.95
2023-02-08T03:50:22.566Z,53.18
2023-02-08T03:52:48.947Z,53.08
2023-02-08T03:55:15.363Z,53.01
2023-02-08T03:57:41.792Z,53.15
2023-02-08T04:00:08.303Z,53.16
2023-02-08T04:02:34.664Z,52.94
2023-02-08T04:05:01.209Z,52.93
2023-02-08T04:07:27.722Z,53.09
2023-02-08T04:09:54.273Z,53.06
2023-02-08T04:12:20.602Z,53.06
2023-02-08T04:14:46.975Z,52.97
2023-02-08T04:17:13.419Z,52.97
2023-02-08T04:19:39.835Z,52.95
2023-02-08T04:22:06.263Z,53.11
2023-02-08T04:24:32.724Z,53.04
2023-02-08T04:26:59.076Z,52.81
2023-02-08T04:29:25.583Z,52.89
2023-02-08T04:31:52.104Z,52.96
2023-02-08T04:34:18.903Z,52.95
2023-02-08T04:36:45.271Z,52.84
2023-02-08T04:39:11.651Z,52.88
2023-02-08T04:41:38.076Z,52.76
2023-02-08T04:44:04.497Z,52.83
2023-02-08T04:46:31.201Z,52.87
2023-02-08T04:48:59.008Z,52.78
2023-02-08T04:51:25.528Z,52.86
2023-02-08T04:53:51.966Z,52.80
2023-02-08T04:56:18.410Z,52.77
2023-02-08T04:58:44.793Z,52.77
2023-02-08T05:01:11.194Z,52.80
2023-02-08T05:03:38.293Z,52.84
2023-02-08T05:06:04.778Z,52.70
2023-02-08T05:08:31.412Z,52.70
2023-02-08T05:10:57.807Z,52.64
2023-02-08T05:13:24.245Z,52.71
2023-02-08T05:15:50.844Z,52.78
2023-02-08T05:18:17.604Z,52.64
2023-02-08T05:20:44.038Z,52.69
2023-02-08T05:23:10.697Z,52.63
2023-02-08T05:25:37.057Z,52.63
2023-02-08T05:28:03.734Z,52.71
2023-02-08T05:30:30.129Z,52.58
2023-02-08T05:32:56.819Z,52.43
2023-02-08T05:35:23.404Z,52.69
2023-02-08T05:37:49.966Z,52.43
2023-02-08T05:40:16.404Z,52.54
2023-02-08T05:42:42.993Z,52.55
2023-02-08T05:45:09.414Z,52.60
2023-02-08T05:47:35.763Z,52.54
2023-02-08T05:50:02.114Z,52.49
2023-02-08T05:52:28.583Z,52.61
2023-02-08T05:54:55.382Z,52.57
2023-02-08T05:57:21.744Z,52.41
2023-02-08T05:59:48.136Z,52.46
2023-02-08T06:02:14.501Z,52.48
2023-02-08T06:04:41.020Z,52.45
2023-02-08T06:07:07.395Z,52.50
2023-02-08T06:09:34.073Z,52.52
2023-02-08T06:12:00.833Z,52.54
2023-02-08T06:14:28.007Z,52.42
2023-02-08T06:16:54.596Z,52.34
2023-02-08T06:19:21.301Z,52.42
2023-02-08T06:21:47.651Z,52.31
2023-02-08T06:24:14.011Z,52.32
2023-02-08T06:26:40.519Z,52.41
2023-02-08T06:29:07.311Z,52.37
2023-02-08T06:31:33.720Z,52.36
2023-02-08T06:34:00.367Z,52.38
2023-02-08T06:36:27.362Z,52.36
2023-02-08T06:38:53.700Z,52.47
2023-02-08T06:41:20.112Z,52.39
2023-02-08T06:43:46.724Z,52.28
2023-02-08T06:46:13.532Z,52.28
2023-02-08T06:48:40.548Z,52.30
2023-02-08T06:51:06.918Z,52.33
2023-02-08T06:53:33.304Z,52.22
2023-02-08T06:56:00.176Z,52.31
2023-02-08T06:58:27.400Z,52.23
2023-02-08T07:00:53.828Z,52.35
2023-02-08T07:03:20.382Z,52.15
2023-02-08T07:05:59.016Z,52.24
2023-02-08T07:08:30.469Z,52.38
2023-02-08T07:10:57.785Z,52.43
2023-02-08T07:13:24.185Z,52.42
2023-02-08T07:15:50.586Z,52.29
2023-02-08T07:18:17.483Z,52.39
2023-02-08T07:20:44.255Z,52.49
2023-02-08T07:23:11.081Z,52.46
2023-02-08T07:25:37.487Z,52.35
2023-02-08T07:28:03.924Z,52.46
2023-02-08T07:30:30.577Z,52.51
2023-02-08T07:32:57.382Z,52.53
2023-02-08T07:35:24.262Z,52.51
2023-02-08T07:37:50.653Z,52.39
2023-02-08T07:40:17.012Z,52.51
2023-02-08T07:42:43.383Z,52.46
2023-02-08T07:45:09.662Z,52.61
2023-02-08T07:47:35.959Z,52.54
2023-02-08T07:50:02.862Z,52.48
2023-02-08T07:52:29.394Z,52.42
2023-02-08T07:54:55.944Z,52.54
2023-02-08T07:57:22.479Z,52.54
2023-02-08T07:59:48.950Z,52.57
2023-02-08T08:02:15.273Z,52.38
2023-02-08T08:04:41.793Z,52.60
2023-02-08T08:07:08.460Z,52.43
2023-02-08T08:09:34.913Z,52.58
2023-02-08T08:12:01.432Z,52.55
2023-02-08T08:14:27.802Z,52.55
2023-02-08T08:16:54.240Z,52.53
2023-02-08T08:19:20.861Z,52.69
2023-02-08T08:21:47.193Z,52.66
2023-02-08T08:24:13.571Z,52.54
2023-02-08T08:26:40.089Z,52.63
2023-02-08T08:29:06.701Z,52.66
2023-02-08T08:31:33.489Z,52.48
2023-02-08T08:33:59.864Z,52.32
2023-02-08T08:36:26.222Z,52.74
2023-02-08T08:38:52.535Z,52.66
2023-02-08T08:41:19.019Z,52.51
2023-02-08T08:43:45.625Z,52.76
2023-02-08T08:46:12.198Z,52.63
2023-02-08T08:48:38.696Z,52.81
2023-02-08T08:51:05.397Z,52.65
2023-02-08T08:53:31.754Z,52.62
2023-02-08T08:55:58.162Z,52.87
2023-02-08T08:58:24.548Z,52.79
2023-02-08T09:00:51.193Z,52.83
2023-02-08T09:03:17.700Z,52.92
2023-02-08T09:05:44.078Z,52.75
2023-02-08T09:08:10.482Z,53.04
2023-02-08T09:10:36.886Z,52.82
2023-02-08T09:13:03.834Z,52.94
2023-02-08T09:15:30.329Z,52.90
2023-02-08T09:17:57.477Z,52.97
2023-02-08T09:20:24.118Z,52.91
2023-02-08T09:22:50.992Z,53.16
2023-02-08T09:25:17.275Z,52.99
2023-02-08T09:27:43.716Z,53.30
2023-02-08T09:30:10.092Z,53.47
2023-02-08T09:32:36.593Z,53.51
2023-02-08T09:35:03.417Z,53.70
2023-02-08T09:37:29.872Z,53.67
2023-02-08T09:39:56.244Z,53.68
2023-02-08T09:42:22.624Z,53.69
2023-02-08T09:44:49.279Z,53.77
2023-02-08T09:47:15.985Z,53.86
2023-02-08T09:49:42.649Z,53.90
2023-02-08T09:52:09.048Z,53.99
2023-02-08T09:54:35.424Z,53.99
2023-02-08T09:57:01.838Z,54.04
2023-02-08T09:59:28.178Z,54.08
2023-02-08T10:01:54.905Z,54.02
2023-02-08T10:04:21.477Z,54.21
2023-02-08T10:06:49.994Z,54.14
2023-02-08T10:09:17.514Z,54.22
2023-02-08T10:11:44.324Z,54.27
2023-02-08T10:14:10.914Z,54.33
2023-02-08T10:16:37.223Z,54.11
2023-02-08T10:19:03.613Z,54.26
2023-02-08T10:21:29.987Z,54.33
2023-02-08T10:23:56.560Z,54.45
2023-02-08T10:26:22.878Z,54.45
2023-02-08T10:28:51.364Z,54.39
2023-02-08T10:31:19.207Z,54.64
2023-02-08T10:33:45.824Z,54.46
2023-02-08T10:36:12.258Z,54.29
2023-02-08T10:38:46.483Z,54.51
2023-02-08T10:41:13.916Z,54.61
2023-02-08T10:43:40.747Z,54.56
2023-02-08T10:46:07.450Z,54.52
2023-02-08T10:48:34.420Z,54.69
2023-02-08T10:51:01.179Z,54.78
2023-02-08T10:53:27.887Z,54.60
2023-02-08T10:55:54.428Z,54.64
2023-02-08T10:58:20.911Z,54.68
2023-02-08T11:00:47.673Z,54.63
2023-02-08T11:03:14.696Z,54.61
2023-02-08T11:05:41.630Z,54.65
2023-02-08T11:08:08.137Z,54.76
2023-02-08T11:10:34.510Z,54.57
2023-02-08T11:13:00.853Z,54.74
2023-02-08T11:15:27.343Z,54.58
2023-02-08T11:17:53.701Z,54.74
2023-02-08T11:20:20.329Z,54.66
2023-02-08T11:22:46.883Z,54.71
2023-02-08T11:25:13.427Z,54.68
2023-02-08T11:27:39.969Z,54.75
2023-02-08T11:30:06.590Z,54.80
2023-02-08T11:32:33.317Z,54.63
2023-02-08T11:34:59.914Z,54.58
2023-02-08T11:37:26.965Z,54.87
2023-02-08T11:39:53.314Z,54.74
2023-02-08T11:42:19.739Z,54.68
2023-02-08T11:44:46.088Z,54.62
2023-02-08T11:47:12.682Z,54.48
2023-02-08T11:49:39.327Z,54.50
2023-02-08T11:52:05.707Z,54.72
2023-02-08T11:54:32.097Z,54.48
2023-02-08T11:56:59.071Z,54.44
2023-02-08T11:59:25.449Z,54.42
2023-02-08T12:01:52.047Z,54.34
2023-02-08T12:04:18.419Z,54.42
2023-02-08T12:06:44.761Z,54.43
2023-02-08T12:09:11.761Z,54.40
2023-02-08T12:11:38.532Z,54.27
2023-02-08T12:14:04.992Z,54.34
2023-02-08T12:16:32.715Z,54.32
2023-02-08T12:18:59.545Z,54.22
2023-02-08T12:21:25.940Z,54.39
2023-02-08T12:23:52.348Z,54.09
2023-02-08T12:26:19.082Z,54.22
2023-02-08T12:28:45.876Z,54.31
2023-02-08T12:31:12.461Z,54.31
2023-02-08T12:33:39.157Z,54.14
2023-02-08T12:36:05.894Z,54.12
2023-02-08T12:38:32.412Z,54.16
2023-02-08T12:40:58.779Z,54.07
2023-02-08T12:43:26.015Z,54.09
2023-02-08T12:45:52.793Z,54.22
2023-02-08T12:48:19.347Z,53.98
2023-02-08T12:50:45.716Z,53.85
2023-02-08T12:53:12.308Z,53.97
2023-02-08T12:55:38.653Z,53.92
2023-02-08T12:58:05.144Z,53.82
2023-02-08T13:00:31.549Z,53.80
2023-02-08T13:02:58.639Z,53.79
2023-02-08T13:05:25.130Z,53.86
2023-02-08T13:07:51.485Z,53.72
2023-02-08T13:10:17.797Z,53.85
2023-02-08T13:12:44.265Z,53.66
2023-02-08T13:15:18.500Z,53.72
2023-02-08T13:17:51.568Z,53.71
2023-02-08T13:20:18.517Z,53.79
2023-02-08T13:22:45.287Z,53.65
2023-02-08T13:25:11.741Z,53.76
2023-02-08T13:27:38.081Z,53.61
2023-02-08T13:30:04.467Z,53.63
2023-02-08T13:32:31.025Z,53.93
2023-02-08T13:34:57.878Z,53.53
2023-02-08T13:37:25.674Z,53.53
2023-02-08T13:39:53.549Z,53.51
2023-02-08T13:42:19.907Z,53.60
2023-02-08T13:44:46.242Z,53.56
2023-02-08T13:47:12.852Z,53.69
2023-02-08T13:49:39.363Z,53.66
2023-02-08T13:52:05.982Z,53.54
2023-02-08T13:54:32.481Z,53.63
2023-02-08T13:56:59.166Z,53.73
2023-02-08T13:59:25.472Z,53.41
2023-02-08T14:01:52.061Z,53.62
2023-02-08T14:04:19.053Z,53.70
2023-02-08T14:06:45.744Z,53.41
2023-02-08T14:09:12.306Z,53.27
2023-02-08T14:11:38.867Z,53.55
2023-02-08T14:14:05.214Z,53.48
2023-02-08T14:16:31.833Z,53.56
2023-02-08T14:18:58.206Z,53.49
2023-02-08T14:21:24.865Z,53.45
2023-02-08T14:23:51.386Z,53.43
2023-02-08T14:26:17.786Z,53.64
2023-02-08T14:28:44.198Z,53.59
2023-02-08T14:31:10.573Z,53.47
2023-02-08T14:33:37.310Z,53.63
2023-02-08T14:36:03.981Z,53.63
2023-02-08T14:38:30.286Z,53.66
2023-02-08T14:40:56.946Z,53.46
2023-02-08T14:43:23.745Z,53.68
2023-02-08T14:45:50.480Z,53.56
2023-02-08T14:48:17.177Z,53.50
2023-02-08T14:50:43.493Z,53.48
2023-02-08T14:53:10.095Z,53.68
2023-02-08T14:55:36.823Z,53.46
2023-02-08T14:58:03.290Z,53.68
2023-02-08T15:00:29.772Z,53.47
2023-02-08T15:02:56.421Z,53.55
2023-02-08T15:05:23.445Z,53.47
2023-02-08T15:07:49.789Z,53.43
2023-02-08T15:10:16.853Z,53.59
2023-02-08T15:12:43.438Z,53.50
2023-02-08T15:15:09.811Z,53.47
2023-02-08T15:17:36.118Z,53.49
2023-02-08T15:20:02.546Z,53.49
2023-02-08T15:22:28.925Z,53.44
2023-02-08T15:24:55.248Z,53.47
2023-02-08T15:27:21.786Z,53.35
2023-02-08T15:29:48.966Z,53.41
2023-02-08T15:32:15.631Z,53.49
2023-02-08T15:34:42.069Z,53.51
2023-02-08T15:37:08.999Z,53.35
2023-02-08T15:39:35.349Z,53.37
2023-02-08T15:42:01.816Z,53.45
2023-02-08T15:44:28.205Z,53.32
2023-02-08T15:49:19.934Z,53.28
2023-02-08T15:51:46.851Z,53.41
2023-02-08T15:54:13.168Z,53.35
2023-02-08T15:56:42.282Z,53.25
2023-02-08T15:59:08.964Z,53.43
2023-02-08T16:01:35.462Z,53.45
2023-02-08T16:04:02.236Z,53.29
2023-02-08T16:06:29.044Z,53.25
2023-02-08T16:08:55.655Z,53.26
2023-02-08T16:11:22.526Z,53.41
2023-02-08T16:13:49.435Z,53.26
2023-02-08T16:16:15.800Z,53.39
2023-02-08T16:18:42.261Z,53.41
2023-02-08T16:21:09.128Z,53.32
2023-02-08T16:23:35.600Z,53.52
2023-02-08T16:26:02.061Z,53.34
2023-02-08T16:28:28.734Z,53.41
2023-02-08T16:30:55.436Z,53.32
2023-02-08T16:33:21.759Z,53.35
2023-02-08T16:35:48.083Z,53.29
2023-02-08T16:38:14.447Z,53.34
2023-02-08T16:40:41.390Z,53.29
2023-02-08T16:43:07.985Z,53.42
2023-02-08T16:45:34.358Z,53.24
2023-02-08T16:48:13.448Z,53.29
2023-02-08T16:50:45.128Z,53.22
2023-02-08T16:53:11.685Z,53.24
2023-02-08T16:55:38.072Z,53.36
2023-02-08T16:58:04.528Z,53.31
2023-02-08T17:00:31.295Z,53.30
2023-02-08T17:02:57.668Z,53.29
2023-02-08T17:05:24.084Z,53.28
2023-02-08T17:07:50.466Z,53.38
2023-02-08T17:10:17.175Z,53.38
2023-02-08T17:12:43.482Z,53.24
2023-02-08T17:15:10.051Z,53.34
2023-02-08T17:17:36.428Z,53.36
2023-02-08T17:20:02.769Z,53.43
2023-02-08T17:22:29.268Z,53.34
2023-02-08T17:24:55.608Z,53.35
2023-02-08T17:27:22.034Z,53.35
2023-02-08T17:29:49.382Z,53.27
2023-02-08T17:32:16.278Z,53.37
2023-02-08T17:34:42.592Z,53.21
2023-02-08T17:37:09.477Z,53.19
2023-02-08T17:39:35.766Z,53.34
2023-02-08T17:42:02.122Z,53.31
2023-02-08T17:44:28.607Z,53.21
2023-02-08T17:46:54.944Z,53.41
2023-02-08T17:49:21.269Z,53.34
2023-02-08T17:51:47.685Z,53.38
2023-02-08T17:54:14.183Z,53.37
2023-02-08T17:56:41.305Z,53.29
2023-02-08T17:59:07.789Z,53.38
2023-02-08T18:01:34.333Z,53.29
2023-02-08T18:04:00.789Z,53.35
2023-02-08T18:06:27.399Z,53.17
2023-02-08T18:08:54.382Z,53.43
2023-02-08T18:11:20.936Z,53.33
2023-02-08T18:13:47.273Z,53.11
2023-02-08T18:16:13.784Z,53.36
2023-02-08T18:18:40.378Z,53.35
2023-02-08T18:21:07.911Z,53.44
2023-02-08T18:23:34.278Z,53.25
2023-02-08T18:26:00.924Z,53.33
2023-02-08T18:28:28.007Z,53.42
2023-02-08T18:30:54.420Z,53.35
2023-02-08T18:33:21.399Z,53.41
2023-02-08T18:35:47.760Z,53.34
2023-02-08T18:38:14.138Z,53.15
2023-02-08T18:40:40.607Z,53.21
2023-02-08T18:43:07.040Z,53.73
2023-02-08T18:45:33.850Z,53.22
2023-02-08T18:48:00.936Z,53.22
2023-02-08T18:50:27.379Z,53.30
2023-02-08T18:52:53.829Z,53.22
2023-02-08T18:55:20.172Z,53.31
2023-02-08T18:57:46.581Z,53.19
2023-02-08T19:00:12.930Z,53.31
2023-02-08T19:02:39.820Z,53.42
2023-02-08T19:05:06.281Z,53.18
2023-02-08T19:07:33.010Z,53.44
2023-02-08T19:09:59.377Z,53.19
2023-02-08T19:12:25.748Z,53.45
2023-02-08T19:14:52.130Z,53.23
2023-02-08T19:17:18.542Z,53.26
2023-02-08T19:19:45.114Z,53.28
2023-02-08T19:22:11.580Z,53.22
2023-02-08T19:24:37.968Z,53.35
2023-02-08T19:27:04.359Z,53.30
2023-02-08T19:29:30.754Z,53.38
2023-02-08T19:31:58.326Z,53.28
2023-02-08T19:34:25.512Z,53.20
2023-02-08T19:36:52.196Z,53.25
2023-02-08T19:39:18.701Z,53.38
2023-02-08T19:41:45.167Z,53.40
2023-02-08T19:44:11.567Z,53.33
2023-02-08T19:46:38.353Z,53.14
2023-02-08T19:49:05.159Z,53.38
2023-02-08T19:51:31.624Z,53.13
2023-02-08T19:53:58.040Z,53.37
2023-02-08T19:56:24.498Z,53.41
2023-02-08T19:58:51.157Z,53.24
2023-02-08T20:01:17.816Z,53.39
2023-02-08T20:03:44.337Z,53.22
2023-02-08T20:06:10.915Z,53.27
2023-02-08T20:08:37.552Z,53.42
2023-02-08T20:11:04.095Z,53.31
2023-02-08T20:13:30.430Z,53.32
2023-02-08T20:15:56.831Z,53.32
2023-02-08T20:18:23.570Z,53.31
2023-02-08T20:20:49.931Z,53.16
2023-02-08T20:23:22.533Z,53.35
2023-02-08T20:25:49.736Z,53.52
2023-02-08T20:28:16.506Z,53.25
2023-02-08T20:30:43.212Z,53.54
2023-02-08T20:33:09.624Z,53.41
2023-02-08T20:35:36.061Z,53.46
2023-02-08T20:38:02.707Z,53.27
2023-02-08T20:40:29.113Z,53.31
2023-02-08T20:42:56.140Z,53.23
2023-02-08T20:45:22.616Z,53.49
2023-02-08T20:47:49.268Z,53.53
2023-02-08T20:50:19.221Z,52.96
2023-02-08T20:52:46.150Z,53.31
2023-02-08T20:55:13.065Z,53.28
2023-02-08T20:57:39.692Z,53.33
2023-02-08T21:00:06.367Z,53.44
2023-02-08T21:02:33.164Z,53.37
2023-02-08T21:04:59.522Z,53.34
2023-02-08T21:07:25.923Z,53.31
2023-02-08T21:09:52.496Z,53.42
2023-02-08T21:12:19.426Z,53.36
2023-02-08T21:14:46.250Z,53.38
2023-02-08T21:17:12.880Z,53.47
2023-02-08T21:19:39.828Z,53.31
2023-02-08T21:22:06.199Z,53.40
2023-02-08T21:24:32.611Z,53.34
2023-02-08T21:26:59.286Z,53.51
2023-02-08T21:29:25.702Z,53.53
2023-02-08T21:31:52.306Z,53.38
2023-02-08T21:34:19.583Z,53.53
2023-02-08T21:36:46.000Z,53.54
2023-02-08T21:39:12.417Z,53.42
2023-02-08T21:41:39.158Z,53.33
2023-02-08T21:44:05.571Z,53.45
2023-02-08T21:46:32.251Z,53.47
2023-02-08T21:48:58.756Z,53.45
2023-02-08T21:51:25.087Z,53.31
2023-02-08T21:53:51.782Z,53.39
2023-02-08T21:56:18.167Z,53.49
2023-02-08T21:58:44.607Z,53.54
2023-02-08T22:01:11.344Z,53.30
2023-02-08T22:03:38.511Z,53.50
2023-02-08T22:06:05.071Z,53.50
2023-02-08T22:08:31.574Z,53.38
2023-02-08T22:10:58.789Z,53.31
2023-02-08T22:13:25.344Z,53.40
2023-02-08T22:15:51.758Z,53.32
2023-02-08T22:18:18.168Z,53.46
2023-02-08T22:20:44.921Z,53.40
2023-02-08T22:23:11.686Z,53.45
2023-02-08T22:25:38.071Z,53.43
2023-02-08T22:28:04.720Z,53.37
2023-02-08T22:30:31.179Z,53.43
2023-02-08T22:32:58.048Z,53.32
2023-02-08T22:35:24.355Z,53.41
2023-02-08T22:37:51.240Z,53.32
2023-02-08T22:40:17.606Z,53.39
2023-02-08T22:42:44.149Z,53.31
2023-02-08T22:45:10.513Z,53.38
2023-02-08T22:47:37.165Z,53.41
2023-02-08T22:50:03.773Z,53.33
2023-02-08T22:52:30.183Z,53.35
2023-02-08T22:55:07.194Z,53.41
2023-02-08T22:57:33.717Z,53.39
2023-02-08T23:00:00.329Z,53.36
2023-02-08T23:02:27.470Z,53.34
2023-02-08T23:04:54.419Z,53.23
2023-02-08T23:07:21.020Z,53.46
2023-02-08T23:09:47.455Z,53.25
2023-02-08T23:12:13.846Z,53.27
2023-02-08T23:14:40.487Z,53.30
2023-02-08T23:17:07.287Z,53.45
2023-02-08T23:19:34.359Z,53.40
2023-02-08T23:22:00.816Z,53.35
2023-02-08T23:24:27.852Z,53.32
2023-02-08T23:26:54.685Z,53.40
2023-02-08T23:29:21.106Z,53.39
2023-02-08T23:31:47.514Z,53.29
2023-02-08T23:34:14.366Z,53.28
2023-02-08T23:36:40.942Z,53.43
2023-02-08T23:39:07.425Z,53.22
2023-02-08T23:41:33.854Z,53.34
2023-02-08T23:44:00.793Z,53.26
2023-02-08T23:46:27.667Z,53.22
2023-02-08T23:48:54.155Z,53.40
2023-02-08T23:51:20.568Z,53.24
2023-02-08T23:53:47.036Z,53.33
2023-02-08T23:56:13.342Z,53.29
2023-02-08T23:58:39.851Z,53.22
